Time;durP1;ratioP1;P1;durP2;ratioP2;P2;SDS_P1;SDS_P2;PMS_P1;PMS_P2;Temp;Humidity;BMP_temperature;BMP_pressure;BME280_temperature;BME280_humidity;BME280_pressure;Samples;Min_cycle;Max_cycle;Signal;HPM_P1;HPM_P2
2022/11/09 00:01:00;;;;;;;7.40;2.80;;;13.20;79.00;;;;;;5004406;28;20178;-92
2022/11/09 00:03:31;;;;;;;6.13;2.70;;;13.20;78.90;;;;;;5001888;28;20729;-91
2022/11/09 00:05:58;;;;;;;4.23;2.60;;;13.10;79.20;;;;;;5002704;28;20178;-92
2022/11/09 00:08:24;;;;;;;6.23;2.30;;;13.20;78.90;;;;;;5001030;28;20598;-91
2022/11/09 00:10:50;;;;;;;5.63;2.60;;;13.20;78.90;;;;;;5003919;28;20178;-91
2022/11/09 00:13:16;;;;;;;4.63;2.80;;;13.20;78.90;;;;;;5004068;28;20258;-91
2022/11/09 00:15:43;;;;;;;9.13;2.60;;;13.20;79.10;;;;;;5006113;28;20213;-92
2022/11/09 00:18:12;;;;;;;2.97;2.67;;;13.20;78.90;;;;;;5004775;28;20240;-91
2022/11/09 00:20:42;;;;;;;3.37;2.50;;;13.30;78.80;;;;;;5007334;28;20171;-92
2022/11/09 00:23:07;;;;;;;3.67;2.70;;;13.20;79.00;;;;;;4989169;28;20167;-91
2022/11/09 00:25:34;;;;;;;3.90;2.57;;;13.30;79.10;;;;;;5003479;28;20198;-91
2022/11/09 00:28:02;;;;;;;3.10;2.60;;;13.30;78.80;;;;;;5004872;28;20532;-91
2022/11/09 00:30:29;;;;;;;4.20;2.60;;;13.30;79.00;;;;;;5005173;28;20185;-92
2022/11/09 00:32:55;;;;;;;5.73;2.80;;;13.20;79.40;;;;;;5004066;28;20186;-91
2022/11/09 00:35:26;;;;;;;6.23;2.57;;;13.20;79.60;;;;;;5004802;28;20710;-91
2022/11/09 00:37:53;;;;;;;3.20;2.40;;;13.20;79.80;;;;;;4989229;28;20206;-91
2022/11/09 00:40:21;;;;;;;9.57;2.70;;;13.10;80.00;;;;;;4988352;28;20178;-91
2022/11/09 00:42:47;;;;;;;4.67;2.50;;;13.20;79.90;;;;;;4971471;28;20182;-92
2022/11/09 00:45:13;;;;;;;4.93;2.87;;;13.10;80.10;;;;;;5005236;28;20201;-92
2022/11/09 00:47:40;;;;;;;4.77;2.53;;;13.00;80.20;;;;;;5006838;28;20188;-92
2022/11/09 00:50:07;;;;;;;3.53;2.60;;;12.90;80.40;;;;;;5007809;28;20215;-92
2022/11/09 00:52:33;;;;;;;4.77;2.63;;;12.90;80.50;;;;;;5006038;28;20185;-92
2022/11/09 00:54:59;;;;;;;4.33;2.57;;;12.80;80.60;;;;;;5006989;28;20201;-92
2022/11/09 00:57:28;;;;;;;5.57;2.63;;;12.80;80.90;;;;;;5008900;28;20209;-92
2022/11/09 00:59:55;;;;;;;4.23;3.10;;;12.70;81.10;;;;;;5009108;28;20174;-92
2022/11/09 01:02:22;;;;;;;2.43;2.20;;;12.60;81.50;;;;;;5009535;28;20193;-92
2022/11/09 01:04:51;;;;;;;5.43;2.70;;;12.50;81.80;;;;;;4990883;28;20214;-92
2022/11/09 01:07:17;;;;;;;6.93;2.73;;;12.50;82.10;;;;;;4988907;28;20282;-92
2022/11/09 01:09:44;;;;;;;5.13;3.23;;;12.50;82.20;;;;;;5007605;28;20182;-92
2022/11/09 01:12:22;;;;;;;9.57;2.70;;;12.40;82.30;;;;;;5006118;28;20186;-92
2022/11/09 01:14:49;;;;;;;6.20;2.80;;;12.50;82.20;;;;;;4989639;28;20202;-92
2022/11/09 01:17:15;;;;;;;3.87;2.60;;;12.50;82.20;;;;;;5006097;28;20198;-92
2022/11/09 01:19:43;;;;;;;3.40;2.60;;;12.50;82.20;;;;;;5006151;28;20244;-92
2022/11/09 01:22:16;;;;;;;5.77;2.80;;;12.40;82.20;;;;;;4991182;28;20185;-92
2022/11/09 01:24:59;;;;;;;2.87;2.20;;;12.30;82.10;;;;;;5006323;28;20293;-92
2022/11/09 01:27:29;;;;;;;5.47;2.50;;;12.30;82.40;;;;;;4988140;28;20273;-92
2022/11/09 01:30:00;;;;;;;7.53;2.40;;;12.30;82.50;;;;;;5004624;28;20166;-92
2022/11/09 01:32:31;;;;;;;6.60;2.37;;;12.30;82.40;;;;;;5004827;28;20190;-92
2022/11/09 01:35:06;;;;;;;6.03;2.80;;;12.20;82.60;;;;;;5003675;28;20206;-91
2022/11/09 01:37:33;;;;;;;5.27;2.70;;;12.00;83.00;;;;;;5004772;28;20236;-93
2022/11/09 01:40:01;;;;;;;7.13;3.17;;;12.00;83.30;;;;;;4987288;28;20224;-92
2022/11/09 01:42:30;;;;;;;4.47;2.97;;;12.00;83.50;;;;;;5003133;28;20182;-92
2022/11/09 01:45:17;;;;;;;5.33;2.80;;;12.00;83.60;;;;;;5002726;28;20200;-92
2022/11/09 01:48:15;;;;;;;6.20;2.70;;;11.90;83.70;;;;;;5004606;28;20186;-92
2022/11/09 01:50:46;;;;;;;4.53;2.63;;;11.90;83.90;;;;;;4992340;28;20194;-92
2022/11/09 01:53:33;;;;;;;5.93;2.57;;;11.90;84.00;;;;;;5005639;28;20189;-91
2022/11/09 01:56:05;;;;;;;4.20;2.70;;;11.90;84.00;;;;;;5003016;28;20573;-92
2022/11/09 01:58:48;;;;;;;4.40;2.77;;;11.90;83.90;;;;;;5004991;28;20198;-92
2022/11/09 02:01:16;;;;;;;5.10;2.63;;;11.80;84.10;;;;;;5004592;28;20174;-91
2022/11/09 02:03:49;;;;;;;3.03;2.50;;;11.80;84.30;;;;;;5004676;28;20201;-91
2022/11/09 02:06:17;;;;;;;9.37;2.80;;;11.80;84.30;;;;;;5003772;28;20202;-91
2022/11/09 02:08:45;;;;;;;5.93;3.13;;;11.80;84.30;;;;;;5002792;28;20182;-91
2022/11/09 02:11:15;;;;;;;5.53;2.70;;;11.80;84.30;;;;;;4985517;28;20192;-91
2022/11/09 02:13:44;;;;;;;3.83;2.77;;;11.90;84.20;;;;;;5004043;28;20237;-91
2022/11/09 02:16:11;;;;;;;4.40;2.80;;;11.90;84.20;;;;;;5004634;28;20217;-91
2022/11/09 02:18:50;;;;;;;7.63;2.80;;;11.90;84.20;;;;;;5002335;28;20213;-91
2022/11/09 02:21:19;;;;;;;5.13;2.97;;;11.90;84.20;;;;;;5001456;28;20221;-91
2022/11/09 02:23:46;;;;;;;4.43;2.77;;;12.00;84.20;;;;;;5002816;28;20166;-91
2022/11/09 02:26:28;;;;;;;3.17;2.40;;;12.10;83.90;;;;;;5001110;28;20329;-92
2022/11/09 02:28:54;;;;;;;7.20;2.40;;;12.20;83.60;;;;;;5000608;28;20184;-91
2022/11/09 02:31:24;;;;;;;4.13;2.50;;;12.20;83.60;;;;;;5002192;28;20250;-92
2022/11/09 02:33:50;;;;;;;5.07;2.30;;;12.20;83.80;;;;;;5001255;28;20202;-91
2022/11/09 02:36:16;;;;;;;6.90;2.63;;;12.20;83.70;;;;;;5000068;28;20210;-91
2022/11/09 02:38:41;;;;;;;3.30;2.10;;;12.20;83.70;;;;;;5000882;28;20210;-91
2022/11/09 02:41:09;;;;;;;5.53;2.43;;;12.20;83.70;;;;;;5001930;28;20178;-91
2022/11/09 02:43:36;;;;;;;6.77;2.63;;;12.20;83.60;;;;;;5003445;28;20196;-91
2022/11/09 02:46:02;;;;;;;6.60;2.50;;;12.10;83.60;;;;;;5004253;28;20178;-91
2022/11/09 02:48:34;;;;;;;5.83;2.77;;;12.10;83.90;;;;;;5005171;28;20182;-91
2022/11/09 02:51:01;;;;;;;3.77;2.90;;;12.00;84.10;;;;;;5005923;28;20170;-91
2022/11/09 02:53:26;;;;;;;6.47;2.87;;;12.00;84.30;;;;;;5006203;28;20185;-92
2022/11/09 02:55:52;;;;;;;4.30;2.60;;;12.00;84.40;;;;;;5005286;28;20185;-92
2022/11/09 02:58:18;;;;;;;5.57;2.60;;;11.90;84.50;;;;;;5006321;28;20303;-91
2022/11/09 03:00:46;;;;;;;4.10;2.97;;;11.90;84.60;;;;;;5004439;28;20174;-92
2022/11/09 03:03:12;;;;;;;8.93;3.70;;;11.90;84.80;;;;;;5006693;28;20178;-92
2022/11/09 03:05:39;;;;;;;5.27;2.93;;;11.80;85.00;;;;;;5009545;28;20198;-92
2022/11/09 03:08:06;;;;;;;2.67;2.47;;;11.80;85.20;;;;;;5014127;28;20294;-92
2022/11/09 03:10:32;;;;;;;6.60;2.80;;;11.80;85.30;;;;;;5011379;28;20182;-92
2022/11/09 03:12:58;;;;;;;6.13;2.60;;;11.80;85.40;;;;;;4994985;28;20166;-91
2022/11/09 03:15:26;;;;;;;8.67;2.93;;;11.90;85.50;;;;;;5009034;28;20209;-92
2022/11/09 03:17:55;;;;;;;4.40;2.67;;;12.00;85.50;;;;;;5011217;28;20205;-92
2022/11/09 03:20:25;;;;;;;7.43;2.40;;;12.10;85.30;;;;;;5009604;28;20170;-91
2022/11/09 03:22:55;;;;;;;6.50;2.70;;;12.10;85.00;;;;;;5009195;28;20178;-91
2022/11/09 03:25:22;;;;;;;3.83;2.83;;;12.20;84.80;;;;;;5008138;28;20194;-91
2022/11/09 03:27:48;;;;;;;4.20;2.60;;;12.20;84.70;;;;;;5009071;28;20186;-91
2022/11/09 03:30:17;;;;;;;4.60;2.60;;;12.20;84.80;;;;;;5007843;28;20182;-91
2022/11/09 03:32:43;;;;;;;6.57;2.47;;;12.30;84.40;;;;;;5006180;28;20205;-91
2022/11/09 03:35:09;;;;;;;6.33;2.67;;;12.50;83.90;;;;;;5006028;28;20198;-92
2022/11/09 03:37:35;;;;;;;5.73;2.63;;;12.60;83.60;;;;;;5006585;28;20638;-92
2022/11/09 03:40:02;;;;;;;5.43;2.60;;;12.70;83.50;;;;;;5004827;28;20545;-91
2022/11/09 03:42:28;;;;;;;7.30;3.10;;;12.70;83.40;;;;;;5006481;28;20258;-92
2022/11/09 03:44:53;;;;;;;5.87;2.90;;;12.60;83.50;;;;;;5005638;28;20688;-92
2022/11/09 03:47:19;;;;;;;7.20;2.70;;;12.70;83.30;;;;;;5008781;28;20182;-92
2022/11/09 03:49:50;;;;;;;4.10;2.70;;;12.60;83.40;;;;;;5008386;28;20170;-91
2022/11/09 03:52:16;;;;;;;7.53;2.70;;;12.40;83.70;;;;;;4994031;28;20182;-92
2022/11/09 03:54:42;;;;;;;4.13;2.20;;;12.40;83.90;;;;;;5007469;28;20620;-92
2022/11/09 03:57:08;;;;;;;6.43;3.53;;;12.60;83.60;;;;;;5006311;28;20181;-92
2022/11/09 03:59:35;;;;;;;5.73;2.27;;;12.70;83.30;;;;;;5008459;28;20353;-92
2022/11/09 04:02:00;;;;;;;4.67;2.50;;;12.80;83.00;;;;;;5009740;28;20202;-92
2022/11/09 04:04:26;;;;;;;8.60;2.70;;;12.80;83.00;;;;;;5006765;28;20649;-92
2022/11/09 04:06:52;;;;;;;4.27;2.27;;;12.80;83.00;;;;;;5007190;28;20201;-91
2022/11/09 04:09:28;;;;;;;4.23;2.87;;;12.90;82.90;;;;;;5005788;28;20196;-93
2022/11/09 04:11:54;;;;;;;4.97;2.50;;;13.10;82.30;;;;;;5006233;28;20170;-92
2022/11/09 04:14:20;;;;;;;6.20;2.67;;;13.10;82.30;;;;;;5019908;23;20228;-89
2022/11/09 04:16:45;;;;;;;5.17;2.83;;;13.00;82.40;;;;;;5014928;28;20624;-90
2022/11/09 04:19:11;;;;;;;6.23;2.77;;;13.00;82.70;;;;;;5014884;28;20197;-90
2022/11/09 04:21:36;;;;;;;7.27;2.80;;;12.90;82.60;;;;;;5015000;28;20224;-90
2022/11/09 04:24:02;;;;;;;8.30;2.80;;;12.90;82.90;;;;;;5015708;28;20571;-89
2022/11/09 04:26:27;;;;;;;3.90;2.50;;;12.80;82.90;;;;;;5014664;28;20181;-89
2022/11/09 04:28:53;;;;;;;9.00;3.07;;;12.70;83.20;;;;;;5014779;28;20248;-90
2022/11/09 04:31:18;;;;;;;7.43;2.77;;;12.70;83.30;;;;;;5015259;28;20632;-89
2022/11/09 04:33:49;;;;;;;5.33;3.00;;;12.60;83.70;;;;;;5014479;28;20181;-90
2022/11/09 04:36:14;;;;;;;5.60;2.27;;;12.60;83.70;;;;;;5014754;28;20170;-90
2022/11/09 04:38:40;;;;;;;4.90;2.50;;;12.60;83.80;;;;;;5014440;28;20193;-90
2022/11/09 04:41:07;;;;;;;4.73;2.90;;;12.50;83.90;;;;;;5014463;28;20184;-90
2022/11/09 04:43:32;;;;;;;7.17;2.30;;;12.50;84.20;;;;;;5015574;28;20208;-90
2022/11/09 04:45:59;;;;;;;6.30;3.07;;;12.50;84.30;;;;;;5014353;28;20197;-90
2022/11/09 04:48:25;;;;;;;5.70;2.80;;;12.40;84.40;;;;;;5014336;28;20185;-89
2022/11/09 04:50:51;;;;;;;3.50;2.53;;;12.30;84.70;;;;;;5014809;28;20262;-90
2022/11/09 04:53:16;;;;;;;5.00;2.93;;;12.40;84.60;;;;;;5015442;28;20644;-90
2022/11/09 04:55:42;;;;;;;10.43;2.87;;;12.50;84.30;;;;;;5014259;28;20201;-89
2022/11/09 04:58:08;;;;;;;4.40;3.03;;;12.60;83.90;;;;;;5014081;28;20205;-90
2022/11/09 05:00:34;;;;;;;4.00;2.57;;;12.60;83.90;;;;;;5014023;28;20182;-90
2022/11/09 05:03:01;;;;;;;5.07;2.70;;;12.50;84.00;;;;;;5014137;28;20264;-90
2022/11/09 05:05:27;;;;;;;4.70;2.47;;;12.50;84.00;;;;;;5015222;28;20259;-90
2022/11/09 05:07:52;;;;;;;7.57;2.53;;;12.50;84.10;;;;;;5013993;28;20181;-89
2022/11/09 05:10:18;;;;;;;6.90;2.67;;;12.50;84.40;;;;;;5013981;28;20560;-90
2022/11/09 05:12:43;;;;;;;9.10;2.77;;;12.50;84.40;;;;;;5014606;28;20177;-89
2022/11/09 05:15:09;;;;;;;3.03;2.60;;;12.50;84.40;;;;;;5014550;28;20217;-90
2022/11/09 05:17:35;;;;;;;3.90;2.33;;;12.50;84.30;;;;;;5013643;28;20185;-89
2022/11/09 05:20:01;;;;;;;4.60;2.50;;;12.60;84.30;;;;;;5013713;28;20181;-90
2022/11/09 05:25:27;;;;;;;4.97;2.87;;;12.70;84.00;;;;;;4992206;28;20807;-90
2022/11/09 05:27:53;;;;;;;4.73;2.53;;;12.80;84.00;;;;;;5010635;28;20284;-90
2022/11/09 05:30:18;;;;;;;7.83;3.60;;;12.70;84.20;;;;;;5013599;28;20220;-90
2022/11/09 05:32:44;;;;;;;5.60;2.50;;;12.80;84.10;;;;;;5015099;28;20544;-89
2022/11/09 05:35:09;;;;;;;6.60;2.60;;;12.70;84.30;;;;;;5014603;28;20197;-90
2022/11/09 05:37:38;;;;;;;4.27;2.80;;;12.70;84.50;;;;;;5014835;28;20651;-90
2022/11/09 05:40:04;;;;;;;3.03;2.60;;;12.70;84.30;;;;;;5013354;28;20219;-90
2022/11/09 05:42:30;;;;;;;7.63;3.13;;;12.70;84.20;;;;;;5013930;28;20184;-90
2022/11/09 05:44:55;;;;;;;7.60;2.70;;;12.70;84.20;;;;;;5014520;28;20571;-90
2022/11/09 05:47:21;;;;;;;7.57;2.60;;;12.70;84.30;;;;;;5013243;28;20209;-90
2022/11/09 05:49:46;;;;;;;5.10;2.50;;;12.60;84.40;;;;;;5013412;28;20177;-90
2022/11/09 05:52:12;;;;;;;9.03;2.83;;;12.50;84.60;;;;;;5013218;28;20179;-90
2022/11/09 05:54:38;;;;;;;4.87;2.57;;;12.40;84.70;;;;;;5013097;28;20568;-90
2022/11/09 05:57:03;;;;;;;9.00;2.83;;;12.30;85.00;;;;;;5013179;28;20200;-90
2022/11/09 05:59:29;;;;;;;7.83;2.57;;;12.30;85.00;;;;;;5012948;28;20211;-90
2022/11/09 06:01:54;;;;;;;4.93;2.37;;;12.30;85.30;;;;;;5013000;28;20192;-90
2022/11/09 06:04:20;;;;;;;9.70;3.30;;;12.30;85.30;;;;;;5013388;28;20197;-90
2022/11/09 06:06:46;;;;;;;9.90;2.60;;;12.50;85.20;;;;;;5013036;28;20182;-90
2022/11/09 06:09:11;;;;;;;3.63;2.20;;;12.50;85.00;;;;;;5013223;28;20193;-90
2022/11/09 06:11:37;;;;;;;5.03;2.30;;;12.60;84.80;;;;;;5012935;28;20177;-90
2022/11/09 06:14:02;;;;;;;4.80;2.87;;;12.60;84.70;;;;;;5014079;28;20571;-90
2022/11/09 06:16:28;;;;;;;5.53;2.77;;;12.60;84.80;;;;;;5012770;28;20211;-90
2022/11/09 06:18:54;;;;;;;9.10;2.30;;;12.60;84.80;;;;;;5012740;28;20252;-90
2022/11/09 06:21:20;;;;;;;8.37;2.77;;;12.50;85.00;;;;;;5013039;28;20182;-90
2022/11/09 06:23:45;;;;;;;5.57;2.13;;;12.50;85.30;;;;;;5012839;28;20264;-90
2022/11/09 06:26:11;;;;;;;4.30;2.43;;;12.60;85.20;;;;;;5013075;28;20201;-90
2022/11/09 06:28:38;;;;;;;3.73;2.30;;;12.70;85.00;;;;;;5013001;28;20181;-90
2022/11/09 06:31:06;;;;;;;3.77;2.73;;;12.80;84.80;;;;;;5013210;28;20220;-90
2022/11/09 06:33:33;;;;;;;2.30;2.10;;;12.80;84.40;;;;;;5013351;28;20177;-90
2022/11/09 06:35:59;;;;;;;3.00;2.10;;;12.90;84.20;;;;;;5012369;28;20232;-90
2022/11/09 06:38:25;;;;;;;5.27;2.10;;;13.20;83.60;;;;;;5012813;28;20288;-91
2022/11/09 06:40:55;;;;;;;3.10;2.10;;;13.20;83.10;;;;;;5012897;28;20188;-91
2022/11/09 06:43:22;;;;;;;4.53;2.50;;;13.20;83.30;;;;;;5012675;28;20177;-90
2022/11/09 06:45:47;;;;;;;5.87;2.30;;;13.30;83.20;;;;;;5013417;28;20201;-91
2022/11/09 06:48:13;;;;;;;3.87;1.90;;;13.30;83.10;;;;;;5013802;28;20243;-91
2022/11/09 06:50:39;;;;;;;5.90;2.20;;;13.40;82.70;;;;;;5014040;28;20181;-91
2022/11/09 06:53:06;;;;;;;5.90;2.40;;;13.30;82.80;;;;;;5014605;28;20181;-92
2022/11/09 06:55:34;;;;;;;8.80;2.37;;;13.30;82.70;;;;;;5015881;28;20197;-92
2022/11/09 06:58:03;;;;;;;4.20;2.20;;;13.30;82.60;;;;;;5013839;28;20205;-91
2022/11/09 07:00:29;;;;;;;7.57;2.37;;;13.30;82.80;;;;;;5013405;28;20177;-91
2022/11/09 07:02:54;;;;;;;5.13;2.00;;;13.30;82.70;;;;;;5013259;28;20268;-91
2022/11/09 07:05:20;;;;;;;3.60;1.97;;;13.40;82.30;;;;;;5013350;28;20565;-92
2022/11/09 07:07:46;;;;;;;5.67;2.17;;;13.40;82.20;;;;;;5012776;28;20181;-91
2022/11/09 07:10:11;;;;;;;6.03;2.27;;;13.30;82.60;;;;;;5012531;28;20211;-91
2022/11/09 07:12:37;;;;;;;5.07;2.13;;;13.20;82.80;;;;;;5012591;28;20185;-91
2022/11/09 07:15:03;;;;;;;3.63;2.00;;;13.10;83.20;;;;;;5013045;28;20221;-92
2022/11/09 07:17:32;;;;;;;6.73;2.20;;;13.20;83.10;;;;;;5012526;28;20608;-91
2022/11/09 07:19:58;;;;;;;8.33;2.57;;;13.20;83.10;;;;;;5012584;28;20181;-91
2022/11/09 07:22:23;;;;;;;3.60;2.33;;;13.20;83.20;;;;;;5012571;28;20601;-91
2022/11/09 07:24:49;;;;;;;5.70;2.30;;;13.10;83.40;;;;;;5013179;28;20656;-90
2022/11/09 07:27:15;;;;;;;2.83;1.83;;;13.10;83.20;;;;;;5012475;28;20236;-91
2022/11/09 07:29:40;;;;;;;8.47;3.47;;;13.10;83.40;;;;;;5012231;28;20189;-90
2022/11/09 07:32:06;;;;;;;5.83;2.33;;;13.00;83.70;;;;;;5013646;28;20548;-91
2022/11/09 07:34:31;;;;;;;8.40;2.37;;;13.10;83.80;;;;;;5012343;28;20675;-91
2022/11/09 07:36:57;;;;;;;2.77;1.97;;;13.10;83.70;;;;;;5012218;28;20640;-91
2022/11/09 07:39:22;;;;;;;9.20;2.40;;;13.10;83.70;;;;;;5012124;28;20254;-91
2022/11/09 07:41:48;;;;;;;11.43;2.60;;;13.10;83.70;;;;;;5012121;28;20177;-91
2022/11/09 07:44:17;;;;;;;5.03;2.43;;;13.10;83.90;;;;;;5013729;28;20194;-91
2022/11/09 07:46:45;;;;;;;5.33;2.53;;;13.10;83.90;;;;;;5012711;28;20192;-91
2022/11/09 07:49:12;;;;;;;3.93;1.90;;;13.20;83.60;;;;;;5015400;28;20185;-91
2022/11/09 07:51:38;;;;;;;5.27;2.63;;;13.20;83.60;;;;;;5016075;28;20184;-91
2022/11/09 07:54:04;;;;;;;4.73;2.50;;;13.20;83.40;;;;;;5016231;28;20197;-91
2022/11/09 07:56:29;;;;;;;9.23;2.40;;;13.20;83.60;;;;;;5016348;28;20251;-90
2022/11/09 07:58:55;;;;;;;6.03;2.20;;;13.20;83.30;;;;;;5002654;28;20271;-89
2022/11/09 08:01:21;;;;;;;7.07;2.83;;;13.30;83.20;;;;;;4992879;28;20255;-90
2022/11/09 08:03:46;;;;;;;4.67;2.10;;;13.30;83.10;;;;;;4991386;28;20623;-91
2022/11/09 08:06:12;;;;;;;4.95;2.55;;;13.30;83.30;;;;;;4983272;28;20158;-90
2022/11/09 08:08:38;;;;;;;6.03;2.70;;;13.30;83.50;;;;;;4982845;28;20643;-90
2022/11/09 08:11:03;;;;;;;5.10;2.30;;;13.20;83.50;;;;;;5015382;28;20556;-91
2022/11/09 08:13:29;;;;;;;3.60;2.10;;;13.30;83.60;;;;;;5015382;28;20185;-90
2022/11/09 08:15:55;;;;;;;4.97;2.13;;;13.30;83.50;;;;;;5004858;28;20225;-89
2022/11/09 08:18:21;;;;;;;6.57;2.17;;;13.30;83.70;;;;;;4993301;28;20276;-90
2022/11/09 08:20:48;;;;;;;3.30;2.10;;;13.30;83.30;;;;;;4982869;28;20184;-90
2022/11/09 08:23:15;;;;;;;6.40;2.17;;;13.30;83.70;;;;;;5006476;28;20542;-90
2022/11/09 08:25:41;;;;;;;4.13;2.07;;;13.30;83.90;;;;;;4988159;28;20201;-89
2022/11/09 08:28:07;;;;;;;12.40;2.53;;;13.30;83.30;;;;;;5015019;28;20647;-90
2022/11/09 08:30:33;;;;;;;4.17;2.43;;;13.30;83.40;;;;;;5016459;28;20266;-90
2022/11/09 08:33:00;;;;;;;5.43;2.50;;;13.40;83.40;;;;;;5015061;28;20186;-90
2022/11/09 08:35:26;;;;;;;3.80;2.60;;;13.30;83.60;;;;;;5015081;28;20236;-90
2022/11/09 08:37:53;;;;;;;5.47;2.80;;;13.40;83.50;;;;;;5016300;28;20201;-90
2022/11/09 08:40:21;;;;;;;5.37;2.70;;;13.50;83.30;;;;;;5016770;28;20232;-90
2022/11/09 08:42:47;;;;;;;5.93;2.77;;;13.70;83.20;;;;;;4992740;28;20178;-90
2022/11/09 08:45:13;;;;;;;4.20;2.00;;;13.80;82.80;;;;;;5010160;28;20205;-89
2022/11/09 08:47:44;;;;;;;5.93;2.50;;;13.80;81.80;;;;;;5014682;28;20710;-89
2022/11/09 08:50:11;;;;;;;8.65;3.20;;;13.80;82.20;;;;;;5004018;28;20347;-89
2022/11/09 08:52:37;;;;;;;10.30;3.60;;;13.80;82.50;;;;;;4983431;28;20485;-88
2022/11/09 08:55:03;;;;;;;3.30;2.47;;;13.80;82.10;;;;;;4995695;28;20253;-91
2022/11/09 08:57:29;;;;;;;8.40;2.70;;;13.80;82.20;;;;;;5015952;28;20199;-90
2022/11/09 08:59:55;;;;;;;7.53;2.60;;;13.90;82.40;;;;;;5014936;28;20192;-90
2022/11/09 09:02:21;;;;;;;5.37;2.80;;;14.00;81.60;;;;;;5014898;28;20276;-90
2022/11/09 09:04:47;;;;;;;10.23;3.63;;;14.00;81.60;;;;;;5014561;28;20232;-91
2022/11/09 09:07:12;;;;;;;7.47;2.80;;;14.00;81.20;;;;;;5014987;28;20177;-90
2022/11/09 09:09:39;;;;;;;6.23;3.20;;;14.10;81.10;;;;;;5014536;28;20185;-90
2022/11/09 09:12:06;;;;;;;9.07;3.10;;;14.20;81.10;;;;;;5015462;28;20174;-90
2022/11/09 09:14:32;;;;;;;11.90;3.13;;;14.10;80.40;;;;;;5015887;28;20213;-91
2022/11/09 09:16:58;;;;;;;9.00;2.83;;;14.20;80.60;;;;;;5015521;28;20239;-90
2022/11/09 09:19:23;;;;;;;9.90;3.03;;;14.10;80.70;;;;;;5015084;28;20205;-91
2022/11/09 09:21:49;;;;;;;8.50;3.77;;;14.10;80.00;;;;;;4998563;28;20177;-92
2022/11/09 09:24:15;;;;;;;6.50;3.60;;;14.10;80.30;;;;;;4977169;28;20177;-92
2022/11/09 09:26:40;;;;;;;10.33;3.40;;;14.10;80.00;;;;;;5009075;28;20184;-91
2022/11/09 09:29:06;;;;;;;9.67;3.00;;;14.10;80.90;;;;;;5016367;28;20674;-91
2022/11/09 09:31:31;;;;;;;12.30;3.40;;;14.10;80.50;;;;;;5017047;28;20281;-92
2022/11/09 09:33:57;;;;;;;8.63;2.70;;;14.20;80.40;;;;;;5016055;28;20194;-91
2022/11/09 09:36:23;;;;;;;10.00;3.70;;;14.30;80.60;;;;;;4990520;28;20237;-89
2022/11/09 09:38:51;;;;;;;12.80;5.17;;;14.30;79.30;;;;;;4991518;28;20770;-88
2022/11/09 09:41:38;;;;;;;6.80;2.77;;;14.30;79.00;;;;;;5007800;28;20355;-88
2022/11/09 09:44:13;;;;;;;6.90;2.50;;;14.40;79.10;;;;;;4969307;28;20280;-88
2022/11/09 09:46:50;;;;;;;7.70;3.23;;;14.50;79.00;;;;;;5008903;28;20419;-91
2022/11/09 09:49:23;;;;;;;11.60;3.57;;;14.60;79.10;;;;;;5014413;28;20619;-92
2022/11/09 09:51:58;;;;;;;7.67;3.37;;;14.50;78.90;;;;;;5013797;28;20616;-90
2022/11/09 09:54:29;;;;;;;6.97;3.33;;;14.40;79.00;;;;;;5013400;28;20208;-90
2022/11/09 09:56:58;;;;;;;5.93;2.80;;;14.40;79.20;;;;;;5013729;28;20176;-91
2022/11/09 09:59:40;;;;;;;7.70;3.07;;;14.40;78.40;;;;;;5013729;28;20761;-90
2022/11/09 10:02:35;;;;;;;6.93;2.93;;;14.50;79.10;;;;;;5014366;28;20227;-91
2022/11/09 10:05:07;;;;;;;13.43;3.97;;;14.70;77.90;;;;;;5013373;28;20209;-90
2022/11/09 10:07:58;;;;;;;13.07;4.13;;;14.70;77.40;;;;;;5016202;28;20181;-91
2022/11/09 10:10:24;;;;;;;15.03;3.73;;;14.70;78.50;;;;;;5015399;28;20174;-91
2022/11/09 10:12:52;;;;;;;10.77;3.50;;;14.60;77.50;;;;;;5017982;28;20209;-92
2022/11/09 10:15:25;;;;;;;6.20;3.03;;;14.70;77.90;;;;;;5020126;28;20220;-91
2022/11/09 10:18:03;;;;;;;9.90;3.30;;;14.80;77.40;;;;;;5014782;28;20221;-91
2022/11/09 10:20:52;;;;;;;10.97;3.10;;;14.90;77.70;;;;;;5015491;28;20244;-91
2022/11/09 10:23:21;;;;;;;10.03;4.23;;;14.90;77.30;;;;;;5015724;28;20170;-92
2022/11/09 10:25:53;;;;;;;10.53;3.63;;;14.80;77.30;;;;;;5015194;28;20220;-92
2022/11/09 10:28:23;;;;;;;13.02;3.90;;;14.90;78.10;;;;;;5014968;28;20193;-92
2022/11/09 10:30:49;;;;;;;10.43;3.73;;;14.80;77.70;;;;;;5015617;28;20200;-91
2022/11/09 10:33:20;;;;;;;14.33;3.67;;;14.60;78.20;;;;;;5014123;28;20185;-89
2022/11/09 10:35:55;;;;;;;13.43;4.37;;;14.70;77.40;;;;;;5014220;28;20706;-89
2022/11/09 10:38:28;;;;;;;11.97;3.73;;;14.80;76.80;;;;;;5013967;28;20197;-89
2022/11/09 10:41:00;;;;;;;9.50;3.83;;;14.70;76.60;;;;;;5014373;28;20162;-89
2022/11/09 10:43:25;;;;;;;12.33;4.67;;;14.70;77.60;;;;;;5013954;28;20162;-89
2022/11/09 10:46:06;;;;;;;10.45;4.18;;;14.80;76.70;;;;;;5014888;28;20204;-90
2022/11/09 10:48:39;;;;;;;11.67;4.20;;;14.80;76.60;;;;;;5013826;28;20165;-90
2022/11/09 10:51:25;;;;;;;10.63;3.70;;;14.80;76.20;;;;;;5014425;28;20176;-89
2022/11/09 10:54:12;;;;;;;8.13;3.97;;;14.80;76.10;;;;;;5014585;28;20203;-89
2022/11/09 10:56:44;;;;;;;15.07;3.90;;;14.90;76.10;;;;;;5014622;28;20256;-89
2022/11/09 10:59:44;;;;;;;10.90;4.13;;;15.00;76.30;;;;;;5013935;28;20193;-90
2022/11/09 11:02:25;;;;;;;8.27;3.78;;;15.10;76.90;;;;;;4993827;28;20196;-89
2022/11/09 11:05:16;;;;;;;13.02;3.15;;;15.20;76.20;;;;;;5014429;28;20197;-89
2022/11/09 11:07:43;;;;;;;8.90;2.70;;;15.20;76.30;;;;;;5010414;28;20205;-89
2022/11/09 11:10:15;;;;;;;7.03;2.58;;;15.10;76.00;;;;;;5014777;28;20176;-87
2022/11/09 11:12:42;;;;;;;7.27;2.80;;;15.00;75.70;;;;;;5014496;28;20177;-89
2022/11/09 11:15:52;;;;;;;6.43;3.53;;;14.80;75.50;;;;;;5013812;28;20239;-89
2022/11/09 11:18:24;;;;;;;9.97;3.60;;;14.70;76.60;;;;;;4982940;28;20215;-90
2022/11/09 11:21:06;;;;;;;7.10;2.50;;;14.60;77.30;;;;;;5015667;28;20198;-91
2022/11/09 11:23:35;;;;;;;10.43;3.07;;;14.50;76.20;;;;;;5016542;28;20165;-91
2022/11/09 11:26:29;;;;;;;6.43;2.60;;;14.60;76.70;;;;;;5031664;28;20193;-91
2022/11/09 11:29:23;;;;;;;12.30;3.30;;;14.70;76.60;;;;;;5026685;28;20260;-92
2022/11/09 11:31:49;;;;;;;9.37;2.80;;;14.80;76.40;;;;;;5019952;28;20229;-92
2022/11/09 11:34:15;;;;;;;6.27;2.50;;;14.70;76.00;;;;;;5021074;28;20232;-91
2022/11/09 11:37:00;;;;;;;7.27;2.53;;;14.90;76.00;;;;;;5016658;28;20178;-91
2022/11/09 11:39:58;;;;;;;9.55;2.80;;;15.00;76.50;;;;;;5015921;28;20584;-91
2022/11/09 11:42:41;;;;;;;11.07;3.10;;;15.00;76.40;;;;;;5016062;28;20161;-91
2022/11/09 11:45:15;;;;;;;15.07;3.65;;;15.00;75.40;;;;;;5015798;28;20687;-92
2022/11/09 11:48:08;;;;;;;11.82;3.08;;;15.00;75.40;;;;;;5015644;28;20559;-90
2022/11/09 11:50:58;;;;;;;11.30;3.45;;;15.00;75.10;;;;;;5017414;28;20162;-90
2022/11/09 11:53:38;;;;;;;8.73;2.80;;;14.80;76.20;;;;;;5016013;28;20620;-89
2022/11/09 11:56:19;;;;;;;13.82;4.38;;;15.00;75.50;;;;;;5017070;28;20189;-90
2022/11/09 11:59:02;;;;;;;12.67;3.67;;;14.90;75.50;;;;;;5015940;28;20219;-90
2022/11/09 12:01:42;;;;;;;11.35;2.90;;;14.90;75.60;;;;;;5015692;28;20647;-90
2022/11/09 12:04:43;;;;;;;10.03;3.47;;;15.00;75.30;;;;;;5015539;28;20236;-90
2022/11/09 12:07:41;;;;;;;8.13;3.28;;;15.20;74.70;;;;;;5016327;28;20183;-90
2022/11/09 12:10:22;;;;;;;7.07;2.22;;;15.20;74.50;;;;;;5016845;28;20181;-90
2022/11/09 12:12:59;;;;;;;9.32;3.15;;;15.20;74.10;;;;;;5016022;28;20176;-88
2022/11/09 12:15:36;;;;;;;11.25;3.20;;;15.10;74.40;;;;;;5016510;28;20205;-90
2022/11/09 12:18:32;;;;;;;8.48;3.17;;;15.20;75.60;;;;;;5015829;28;20197;-90
2022/11/09 12:21:15;;;;;;;8.88;2.88;;;15.30;74.40;;;;;;5015540;28;20165;-90
2022/11/09 12:23:56;;;;;;;9.45;2.85;;;15.50;73.80;;;;;;5015586;28;20165;-90
2022/11/09 12:26:42;;;;;;;12.82;3.30;;;15.40;72.80;;;;;;5016871;28;20219;-90
2022/11/09 12:29:26;;;;;;;15.40;3.30;;;15.30;73.20;;;;;;5015149;28;20683;-90
2022/11/09 12:32:10;;;;;;;8.43;2.92;;;15.30;72.30;;;;;;5016299;28;20196;-90
2022/11/09 12:34:42;;;;;;;14.40;2.90;;;15.30;73.40;;;;;;5014863;28;20201;-89
2022/11/09 12:37:13;;;;;;;11.55;3.03;;;15.40;72.20;;;;;;5014921;28;20651;-90
2022/11/09 12:39:46;;;;;;;7.95;3.13;;;15.40;72.30;;;;;;5014654;28;20189;-90
2022/11/09 12:42:28;;;;;;;10.15;2.85;;;15.40;72.70;;;;;;5015345;28;20696;-90
2022/11/09 12:45:03;;;;;;;13.18;3.55;;;15.50;72.80;;;;;;5015245;28;20193;-89
2022/11/09 12:47:40;;;;;;;7.75;3.22;;;15.60;71.80;;;;;;5015115;28;20219;-90
2022/11/09 12:50:22;;;;;;;9.73;4.00;;;15.60;71.80;;;;;;5015104;28;20173;-90
2022/11/09 12:52:51;;;;;;;9.95;3.38;;;15.70;71.90;;;;;;5015116;28;20173;-90
2022/11/09 12:55:27;;;;;;;10.80;3.78;;;15.70;71.90;;;;;;5015869;28;20193;-91
2022/11/09 12:57:53;;;;;;;8.38;3.67;;;15.70;71.20;;;;;;5014524;28;20180;-90
2022/11/09 13:00:43;;;;;;;9.10;3.53;;;15.80;72.20;;;;;;5015767;28;20170;-90
2022/11/09 13:03:20;;;;;;;9.82;3.67;;;15.80;70.90;;;;;;5014566;28;20173;-91